Time;durP1;ratioP1;P1;durP2;ratioP2;P2;SDS_P1;SDS_P2;PMS_P1;PMS_P2;Temp;Humidity;BMP_temperature;BMP_pressure;BME280_temperature;BME280_humidity;BME280_pressure;Samples;Min_cycle;Max_cycle;Signal;HPM_P1;HPM_P2
2020/12/04 00:01:15;;;;;;;8.23;7.53;;;6.20;99.90;;;6.24;93.14;97991.72;5074821;28;20040;-73
2020/12/04 00:03:43;;;;;;;8.20;7.07;;;6.30;99.90;;;6.28;93.09;97943.47;5074993;28;20060;-73
2020/12/04 00:06:10;;;;;;;8.13;7.43;;;6.30;99.90;;;6.19;93.11;97913.16;5074672;28;20102;-73
2020/12/04 00:08:38;;;;;;;8.07;7.27;;;6.30;99.90;;;6.12;93.18;97903.78;5074523;28;20043;-73
2020/12/04 00:11:08;;;;;;;8.10;7.50;;;6.20;99.90;;;6.29;93.08;97916.34;5073474;28;20489;-73
2020/12/04 00:13:35;;;;;;;8.30;7.43;;;6.30;99.90;;;6.24;93.00;97918.25;5074528;28;20094;-72
2020/12/04 00:16:03;;;;;;;7.87;7.17;;;6.20;99.90;;;6.22;93.29;97910.44;5074813;28;20056;-72
2020/12/04 00:18:32;;;;;;;8.20;7.40;;;6.20;99.90;;;6.20;93.52;97911.41;5074483;28;20048;-73
2020/12/04 00:21:00;;;;;;;7.97;7.17;;;6.20;99.90;;;6.19;92.94;97925.44;5074379;28;20119;-73
2020/12/04 00:23:29;;;;;;;7.53;6.93;;;6.20;99.90;;;6.17;92.88;97915.00;5073309;28;20047;-73
2020/12/04 00:25:57;;;;;;;8.03;7.33;;;6.20;99.90;;;6.20;92.85;97914.03;5074537;28;20041;-73
2020/12/04 00:28:24;;;;;;;8.40;7.70;;;6.20;99.90;;;6.04;92.57;97850.72;5074138;28;20086;-72
2020/12/04 00:30:52;;;;;;;8.50;7.80;;;6.30;99.90;;;6.25;92.38;97899.00;5072897;28;20551;-73
2020/12/04 00:33:20;;;;;;;8.33;7.63;;;6.30;99.90;;;6.34;92.34;97869.78;5074474;28;20094;-72
2020/12/04 00:35:49;;;;;;;8.77;7.97;;;6.30;99.90;;;6.24;92.68;97908.63;5074418;28;20056;-72
2020/12/04 00:38:17;;;;;;;7.83;7.23;;;6.30;99.90;;;6.22;92.95;97876.34;5074101;28;20124;-72
2020/12/04 00:40:46;;;;;;;7.83;7.03;;;6.20;99.90;;;6.06;92.43;97834.94;5074060;28;20097;-73
2020/12/04 00:43:13;;;;;;;8.30;7.60;;;6.30;99.90;;;6.18;92.09;97827.50;5073884;28;20052;-74
2020/12/04 00:45:41;;;;;;;7.87;7.17;;;6.20;99.90;;;6.14;92.14;97861.75;5073201;28;20049;-73
2020/12/04 00:48:09;;;;;;;7.40;6.70;;;6.20;99.90;;;6.27;92.11;97861.28;5072972;28;20114;-73
2020/12/04 00:50:38;;;;;;;7.70;6.97;;;6.30;99.90;;;6.40;91.89;97851.19;5074249;28;20114;-72
2020/12/04 00:53:07;;;;;;;7.33;6.73;;;6.40;99.90;;;6.26;92.01;97840.34;5074125;28;20091;-72
2020/12/04 00:55:40;;;;;;;7.97;7.03;;;6.30;99.90;;;6.22;92.93;97839.59;5072792;28;20139;-75
2020/12/04 00:58:08;;;;;;;7.87;7.17;;;6.30;99.90;;;6.14;93.34;97812.78;5072672;28;20452;-72
2020/12/04 01:00:37;;;;;;;7.07;6.37;;;6.20;99.90;;;6.18;93.32;97810.91;5072567;28;20048;-72
2020/12/04 01:03:05;;;;;;;7.50;6.50;;;6.20;99.90;;;6.17;93.65;97838.06;5073631;28;20086;-74
2020/12/04 01:05:33;;;;;;;7.70;6.30;;;6.20;99.90;;;6.18;93.02;97817.00;5073891;28;20371;-75
2020/12/04 01:08:01;;;;;;;8.20;7.40;;;6.20;99.90;;;6.12;93.17;97801.47;5073770;28;20040;-71
2020/12/04 01:10:30;;;;;;;7.80;6.90;;;6.20;99.90;;;6.20;93.35;97806.44;5073672;28;20044;-72
2020/12/04 01:12:58;;;;;;;7.60;6.90;;;6.20;99.90;;;6.27;92.77;97818.47;5073400;28;20070;-72
2020/12/04 01:15:26;;;;;;;10.53;7.13;;;6.20;99.90;;;6.13;93.31;97797.97;5073581;28;20093;-73
2020/12/04 01:17:54;;;;;;;7.73;7.13;;;6.20;99.90;;;6.23;93.76;97801.09;5072261;28;20068;-72
2020/12/04 01:20:22;;;;;;;8.63;7.80;;;6.20;99.90;;;6.14;93.98;97804.03;5073337;28;20040;-73
2020/12/04 01:22:49;;;;;;;9.23;7.93;;;6.20;99.90;;;6.17;93.91;97789.06;5073209;28;20471;-72
2020/12/04 01:25:17;;;;;;;9.77;8.83;;;6.20;99.90;;;6.10;93.71;97776.22;5073443;28;20094;-72
2020/12/04 01:27:46;;;;;;;10.97;9.87;;;6.10;99.90;;;6.14;93.90;97772.56;5073323;28;20102;-73
2020/12/04 01:30:14;;;;;;;12.07;9.57;;;6.10;99.90;;;6.15;93.98;97776.91;5072969;28;20105;-72
2020/12/04 01:32:42;;;;;;;10.53;9.53;;;6.20;99.90;;;6.08;94.28;97765.78;5073158;28;20044;-74
2020/12/04 01:35:10;;;;;;;10.53;9.37;;;6.10;99.90;;;6.11;94.27;97760.44;5073183;28;20048;-74
2020/12/04 01:37:38;;;;;;;10.60;9.63;;;6.10;99.90;;;6.10;94.78;97744.72;5071897;28;20811;-72
2020/12/04 01:40:06;;;;;;;9.17;8.27;;;6.10;99.90;;;5.26;94.68;97618.47;5072867;28;20064;-73
2020/12/04 01:42:34;;;;;;;8.87;8.07;;;6.10;99.90;;;6.09;94.41;97759.63;5072912;28;20143;-72
2020/12/04 01:45:03;;;;;;;8.13;7.33;;;6.10;99.90;;;6.10;94.44;97753.47;5088594;28;20045;-75
2020/12/04 01:47:31;;;;;;;11.53;7.07;;;6.10;99.90;;;6.03;94.66;97743.25;5072686;28;20513;-74
2020/12/04 01:49:59;;;;;;;7.53;6.83;;;6.00;99.90;;;6.04;94.96;97732.69;5071640;28;20063;-73
2020/12/04 01:52:28;;;;;;;7.47;6.87;;;6.00;99.90;;;6.07;94.56;97750.97;5072907;28;20071;-73
2020/12/04 01:54:55;;;;;;;7.13;6.43;;;6.10;99.90;;;6.12;94.56;97735.03;5072874;28;20123;-74
2020/12/04 01:57:28;;;;;;;7.30;6.70;;;6.10;99.90;;;5.78;94.26;97684.72;5072555;28;20048;-75
2020/12/04 01:59:55;;;;;;;7.87;7.17;;;6.10;99.90;;;5.96;94.50;97711.13;5071518;28;20060;-74
2020/12/04 02:02:24;;;;;;;7.77;7.07;;;6.10;99.90;;;6.11;94.47;97718.47;5072715;28;20125;-74
2020/12/04 02:04:52;;;;;;;7.50;6.80;;;6.10;99.90;;;6.00;94.63;97712.75;5072662;28;20037;-74
2020/12/04 02:07:29;;;;;;;6.93;6.00;;;6.10;99.90;;;6.03;94.41;97698.66;5072524;28;20154;-75
2020/12/04 02:10:02;;;;;;;7.43;6.73;;;6.10;99.90;;;6.08;94.66;97697.56;5072396;28;20060;-72
2020/12/04 02:12:30;;;;;;;7.17;6.57;;;6.10;99.90;;;6.05;94.14;97691.59;5072905;28;20052;-74
2020/12/04 02:14:59;;;;;;;7.10;6.50;;;6.00;99.90;;;6.09;94.35;97686.19;5072467;28;20088;-73
2020/12/04 02:17:32;;;;;;;7.50;6.77;;;6.10;99.90;;;6.12;94.32;97691.31;5072507;28;20052;-74
2020/12/04 02:20:00;;;;;;;6.43;5.93;;;6.10;99.90;;;6.13;94.47;97663.31;5072235;28;20086;-74
2020/12/04 02:22:35;;;;;;;6.80;6.23;;;6.20;99.90;;;6.07;94.62;97648.66;5072431;28;20068;-73
2020/12/04 02:25:05;;;;;;;7.00;6.40;;;6.10;99.90;;;5.61;94.98;97583.13;5072236;28;20402;-74
2020/12/04 02:27:32;;;;;;;8.00;7.27;;;6.10;99.90;;;5.99;95.10;97652.47;5071061;28;20555;-74
2020/12/04 02:30:00;;;;;;;6.80;6.20;;;6.00;99.90;;;6.01;95.25;97643.66;5072066;28;20092;-75
2020/12/04 02:32:27;;;;;;;7.53;6.80;;;6.00;99.90;;;6.14;95.03;97641.41;5072075;28;20143;-74
2020/12/04 02:34:54;;;;;;;7.50;6.90;;;6.10;99.90;;;6.09;94.66;97645.97;5072249;28;20434;-74
2020/12/04 02:37:22;;;;;;;9.07;6.57;;;6.10;99.90;;;6.11;94.63;97642.41;5072006;28;20127;-74
2020/12/04 02:39:50;;;;;;;6.47;6.07;;;6.10;99.90;;;6.08;94.47;97637.25;5072245;28;20049;-75
2020/12/04 02:42:17;;;;;;;6.30;5.90;;;6.20;99.90;;;6.11;94.40;97631.91;5071873;28;20041;-75
2020/12/04 02:44:44;;;;;;;7.40;6.73;;;6.20;99.90;;;6.19;93.74;97627.19;5070892;28;20064;-75
2020/12/04 02:47:12;;;;;;;6.87;6.37;;;6.20;99.90;;;6.03;94.10;97592.00;5071831;28;20033;-74
2020/12/04 02:49:39;;;;;;;6.50;5.90;;;6.20;99.90;;;6.14;93.67;97592.41;5072338;28;20037;-74
2020/12/04 02:52:07;;;;;;;6.87;6.10;;;6.20;99.90;;;6.20;94.05;97605.28;5071797;28;20041;-74
2020/12/04 02:54:34;;;;;;;6.53;6.03;;;6.20;99.90;;;6.19;93.97;97606.19;5074365;28;20562;-74
2020/12/04 02:57:02;;;;;;;5.93;5.53;;;6.20;99.90;;;6.24;93.58;97596.41;5076062;28;20048;-74
2020/12/04 02:59:30;;;;;;;6.37;5.87;;;6.20;99.90;;;6.30;93.43;97606.66;5076241;28;20060;-73
2020/12/04 03:01:57;;;;;;;6.80;5.77;;;6.30;99.90;;;6.14;93.44;97568.81;5075936;28;20496;-73
2020/12/04 03:04:24;;;;;;;6.77;5.73;;;6.30;99.90;;;6.39;93.01;97576.53;5074801;28;20106;-74
2020/12/04 03:06:52;;;;;;;6.27;5.77;;;6.40;99.90;;;6.40;92.61;97580.88;5076160;28;20040;-73
2020/12/04 03:09:19;;;;;;;6.40;5.80;;;6.40;99.90;;;6.42;92.39;97592.19;5075992;28;20041;-73
2020/12/04 03:11:47;;;;;;;5.60;5.20;;;6.40;99.90;;;6.45;91.97;97593.81;5076086;28;20098;-74
2020/12/04 03:14:15;;;;;;;5.53;5.13;;;6.40;99.90;;;6.53;92.03;97574.22;5075484;28;20041;-73
2020/12/04 03:16:42;;;;;;;5.80;5.17;;;6.50;99.90;;;6.45;92.36;97592.03;5075684;28;20558;-74
2020/12/04 03:19:10;;;;;;;6.10;5.60;;;6.50;99.90;;;6.52;92.38;97575.16;5075590;28;20481;-73
2020/12/04 03:21:37;;;;;;;5.90;5.50;;;6.50;99.90;;;6.53;92.25;97560.22;5075770;28;20071;-74
2020/12/04 03:24:05;;;;;;;5.80;5.37;;;6.50;99.90;;;6.33;92.41;97540.91;5075487;28;20106;-73
2020/12/04 03:26:32;;;;;;;6.17;5.77;;;6.50;99.90;;;6.57;91.39;97556.56;5075741;28;20143;-74
2020/12/04 03:28:59;;;;;;;5.00;4.63;;;6.60;99.90;;;4.90;91.16;97318.69;5075365;28;20049;-74
2020/12/04 03:31:27;;;;;;;5.63;5.20;;;6.60;99.90;;;6.39;91.50;97514.41;5075276;28;20060;-73
2020/12/04 03:33:55;;;;;;;6.23;5.73;;;6.60;99.90;;;6.63;91.19;97569.44;5075212;28;20498;-73
2020/12/04 03:36:23;;;;;;;6.10;5.50;;;6.60;99.90;;;6.53;91.39;97541.84;5075544;28;20037;-73
2020/12/04 03:38:50;;;;;;;5.88;5.47;;;6.60;99.90;;;6.70;91.36;97539.38;5075735;28;20098;-73
2020/12/04 03:41:17;;;;;;;5.60;5.20;;;6.70;99.90;;;6.75;90.75;97555.78;5073840;28;20044;-73
2020/12/04 03:43:45;;;;;;;5.70;5.30;;;6.70;99.90;;;6.79;90.75;97567.88;5075365;28;20524;-73
2020/12/04 03:46:13;;;;;;;6.07;5.57;;;6.80;99.90;;;6.59;90.65;97533.72;5075067;28;20161;-73
2020/12/04 03:48:42;;;;;;;5.53;5.13;;;6.70;99.90;;;6.73;90.83;97563.75;5090750;28;20521;-74
2020/12/04 03:51:10;;;;;;;6.10;5.60;;;6.70;99.90;;;6.73;90.96;97539.25;5074012;28;20068;-73
2020/12/04 03:53:37;;;;;;;6.47;6.00;;;6.70;99.90;;;6.03;91.01;97441.63;5075466;28;20052;-73
2020/12/04 03:56:05;;;;;;;5.75;5.35;;;6.70;99.90;;;6.75;90.66;97563.69;5074938;28;20151;-74
2020/12/04 03:58:32;;;;;;;6.37;5.87;;;6.70;99.90;;;6.79;90.21;97537.22;5074822;28;20543;-76
2020/12/04 04:01:00;;;;;;;5.80;5.30;;;6.80;99.90;;;6.85;90.29;97557.13;5075061;28;20037;-73
2020/12/04 04:03:27;;;;;;;6.13;5.63;;;6.80;99.90;;;6.90;90.11;97527.09;5074799;28;20127;-73
2020/12/04 04:05:55;;;;;;;5.70;5.20;;;6.90;99.90;;;7.01;89.48;97524.00;5074656;28;20426;-73
2020/12/04 04:08:23;;;;;;;6.23;5.73;;;7.00;99.90;;;7.03;89.79;97524.78;5074878;28;20478;-74
2020/12/04 04:10:50;;;;;;;5.35;4.80;;;7.00;99.90;;;6.99;89.55;97531.94;5074937;28;20119;-73
2020/12/04 04:13:17;;;;;;;5.93;5.53;;;7.00;99.90;;;6.99;89.71;97524.06;5074880;28;20125;-73
2020/12/04 04:15:45;;;;;;;5.90;5.40;;;7.00;99.90;;;6.92;89.47;97508.66;5074707;28;20110;-73
2020/12/04 04:18:12;;;;;;;5.38;4.97;;;7.00;99.90;;;7.07;89.65;97528.97;5074560;28;20460;-73
2020/12/04 04:20:39;;;;;;;5.73;5.33;;;7.10;99.90;;;7.19;89.79;97520.56;5074745;28;20080;-73
2020/12/04 04:23:08;;;;;;;5.72;5.30;;;7.10;99.90;;;7.28;88.98;97513.13;5074404;28;20425;-72
2020/12/04 04:25:36;;;;;;;5.10;4.80;;;7.30;99.90;;;7.25;88.92;97530.81;5074375;28;20094;-73
2020/12/04 04:28:03;;;;;;;5.63;5.23;;;7.20;99.90;;;7.29;89.07;97542.88;5074306;28;20040;-73
2020/12/04 04:30:30;;;;;;;5.28;4.93;;;7.30;99.90;;;7.22;89.00;97523.03;5074277;28;20041;-74
2020/12/04 04:32:58;;;;;;;5.70;5.20;;;7.20;99.90;;;7.12;89.29;97519.13;5074537;28;20047;-73
2020/12/04 04:35:25;;;;;;;5.82;5.43;;;7.20;99.90;;;7.23;89.70;97517.72;5073100;28;20072;-73
2020/12/04 04:37:53;;;;;;;5.53;5.13;;;7.20;99.90;;;7.30;89.39;97531.44;5074398;28;20048;-73
2020/12/04 04:40:23;;;;;;;5.50;4.72;;;7.30;99.90;;;7.20;89.28;97517.03;5074040;28;20048;-72
2020/12/04 04:43:06;;;;;;;5.53;5.13;;;7.30;99.90;;;7.26;89.17;97511.47;5074107;28;20059;-73
2020/12/04 04:45:34;;;;;;;5.28;4.88;;;7.20;99.90;;;7.29;89.27;97506.09;5074040;28;20109;-73
2020/12/04 04:48:06;;;;;;;5.75;5.30;;;7.20;99.90;;;7.34;89.21;97513.78;5074414;28;20043;-73
2020/12/04 04:50:35;;;;;;;5.88;5.40;;;7.30;99.90;;;7.30;88.85;97492.00;5074214;28;20036;-73
2020/12/04 04:53:03;;;;;;;4.82;4.53;;;7.40;99.90;;;7.44;88.86;97499.25;5073895;28;20091;-73
2020/12/04 04:55:31;;;;;;;5.25;4.95;;;7.40;99.90;;;7.51;88.70;97545.41;5073805;28;20056;-72
2020/12/04 04:57:59;;;;;;;5.78;5.28;;;7.50;99.90;;;7.60;87.93;97524.78;5073909;28;20072;-73
2020/12/04 05:00:27;;;;;;;5.07;4.65;;;7.60;99.90;;;7.62;87.94;97509.81;5073895;28;20118;-73
2020/12/04 05:02:54;;;;;;;5.47;5.07;;;7.60;99.90;;;7.62;88.02;97528.22;5072625;28;20403;-73
2020/12/04 05:05:39;;;;;;;4.97;4.57;;;7.60;99.90;;;7.38;88.18;97483.78;5073847;28;20052;-74
2020/12/04 05:08:14;;;;;;;5.25;4.85;;;7.50;99.90;;;7.59;88.23;97538.03;5072442;28;20047;-73
2020/12/04 05:10:43;;;;;;;4.88;4.47;;;7.60;99.90;;;7.59;88.72;97528.34;5073719;28;20106;-72
2020/12/04 05:13:12;;;;;;;5.25;4.85;;;7.60;99.90;;;7.48;88.36;97475.41;5073776;28;20049;-74
2020/12/04 05:15:40;;;;;;;4.68;4.38;;;7.60;99.90;;;7.61;87.76;97502.81;5073580;28;20051;-73
2020/12/04 05:18:10;;;;;;;4.88;4.47;;;7.60;99.90;;;7.67;88.15;97481.50;5073068;28;20075;-72
2020/12/04 05:20:40;;;;;;;;;;;7.60;99.90;;;7.68;88.42;97485.84;5074026;28;20072;-72
2020/12/04 05:23:09;;;;;;;5.25;4.70;;;7.60;99.90;;;7.71;87.84;97519.88;5073519;28;19920;-72
2020/12/04 05:25:39;;;;;;;5.05;4.65;;;7.70;99.90;;;7.72;88.33;97497.94;5073158;28;20047;-72
2020/12/04 05:28:10;;;;;;;4.82;4.38;;;7.70;99.90;;;7.75;88.53;97489.88;5073420;28;20044;-72
2020/12/04 05:30:40;;;;;;;5.35;4.85;;;7.70;99.90;;;7.78;88.18;97481.84;5073164;28;20056;-73
2020/12/04 05:33:08;;;;;;;5.38;4.88;;;7.70;99.90;;;7.81;88.30;97481.72;5073007;28;20090;-72
2020/12/04 05:35:38;;;;;;;5.22;4.82;;;7.80;99.90;;;7.77;88.84;97467.00;5073189;28;20075;-73
2020/12/04 05:38:15;;;;;;;5.30;4.90;;;7.80;99.90;;;7.90;88.32;97509.31;5073173;28;20406;-72
2020/12/04 05:40:44;;;;;;;5.25;4.85;;;7.80;99.90;;;7.95;87.88;97554.72;5072934;28;20091;-73
2020/12/04 05:43:28;;;;;;;4.47;4.18;;;7.90;99.90;;;8.05;87.42;97524.41;5072833;28;20047;-73
2020/12/04 05:46:17;;;;;;;5.50;5.00;;;8.00;99.90;;;8.02;87.10;97528.03;5073104;28;20044;-73
2020/12/04 05:48:56;;;;;;;5.82;4.80;;;8.00;99.90;;;7.90;86.30;97504.94;5073015;28;20056;-72
2020/12/04 05:51:26;;;;;;;4.78;4.38;;;8.00;99.90;;;8.17;85.39;97545.72;5072781;28;20040;-73
2020/12/04 05:53:54;;;;;;;4.43;3.78;;;8.10;99.90;;;8.13;85.14;97528.34;5072834;28;20052;-72
2020/12/04 05:56:23;;;;;;;4.63;4.20;;;8.10;99.90;;;8.19;84.77;97514.91;5072808;28;20102;-72
2020/12/04 05:58:55;;;;;;;4.43;4.03;;;8.20;99.90;;;8.24;85.03;97525.22;5071545;28;20165;-72
2020/12/04 06:01:24;;;;;;;4.05;3.85;;;8.20;99.90;;;8.09;84.75;97471.53;5073144;28;20389;-72
2020/12/04 06:03:53;;;;;;;4.78;4.30;;;8.20;99.90;;;8.13;85.34;97533.63;5072730;28;20071;-72
2020/12/04 06:06:26;;;;;;;4.30;3.90;;;8.10;99.90;;;8.20;84.65;97508.72;5072667;28;20040;-72
2020/12/04 06:08:57;;;;;;;4.88;3.55;;;8.20;99.90;;;8.18;84.86;97486.91;5071003;28;20040;-72
2020/12/04 06:11:30;;;;;;;4.95;4.35;;;8.20;99.90;;;8.32;84.65;97512.56;5072311;28;20494;-73
2020/12/04 06:13:59;;;;;;;4.22;3.92;;;8.30;99.90;;;8.28;84.07;97563.66;5088219;28;20067;-72
2020/12/04 06:16:27;;;;;;;4.07;3.78;;;8.30;99.90;;;8.19;82.80;97514.03;5072692;28;20102;-72
2020/12/04 06:18:55;;;;;;;4.47;3.90;;;8.40;99.90;;;8.34;82.72;97518.63;5072452;28;20045;-73
2020/12/04 06:21:43;;;;;;;4.40;3.80;;;8.50;99.90;;;8.51;79.25;97541.47;5072230;28;20093;-74
2020/12/04 06:24:11;;;;;;;3.78;3.47;;;8.50;99.90;;;8.58;79.65;97575.31;5072835;28;20508;-73
2020/12/04 06:26:49;;;;;;;3.97;3.67;;;8.60;99.90;;;8.64;79.61;97575.03;5072392;28;20064;-72
2020/12/04 06:29:17;;;;;;;3.72;3.50;;;8.60;99.90;;;8.58;80.36;97548.13;5072058;28;20048;-72
2020/12/04 06:31:45;;;;;;;5.32;3.80;;;8.60;99.90;;;8.66;79.02;97582.84;5072603;28;20067;-73
2020/12/04 06:34:17;;;;;;;4.90;3.85;;;8.70;99.90;;;8.52;75.53;97577.38;5072048;28;20051;-74
2020/12/04 06:36:45;;;;;;;3.60;3.40;;;8.60;99.90;;;8.62;74.27;97615.53;5072555;28;20090;-73
2020/12/04 06:39:30;;;;;;;3.85;3.65;;;8.60;99.90;;;8.50;73.16;97653.84;5072287;28;20052;-72
2020/12/04 06:41:58;;;;;;;3.92;3.63;;;8.50;99.90;;;8.29;73.59;97585.56;5072342;28;20097;-75
2020/12/04 06:44:31;;;;;;;5.10;3.58;;;8.40;99.90;;;8.40;73.33;97567.47;5070665;28;20139;-72
2020/12/04 06:46:59;;;;;;;3.53;3.33;;;8.40;99.90;;;8.40;73.44;97575.38;5072346;28;20131;-76
2020/12/04 06:49:37;;;;;;;3.40;3.20;;;8.40;99.90;;;8.28;73.73;97600.53;5071638;28;20494;-73
2020/12/04 06:52:08;;;;;;;4.00;3.60;;;8.30;99.90;;;8.10;73.73;97612.72;5072267;28;20055;-73
2020/12/04 06:54:38;;;;;;;;;;;8.10;99.90;;;7.97;73.04;97569.50;5072891;28;20490;-74
2020/12/04 06:57:06;;;;;;;3.33;3.15;;;8.20;99.90;;;8.04;72.89;97596.38;5072069;28;19977;-74
2020/12/04 06:59:37;;;;;;;5.60;3.33;;;8.10;99.90;;;8.10;73.45;97599.56;5072120;28;20131;-73
2020/12/04 07:02:11;;;;;;;3.95;3.55;;;8.10;99.90;;;8.01;73.76;97601.78;5070871;28;20049;-74
2020/12/04 07:04:41;;;;;;;3.60;3.40;;;8.10;99.90;;;8.00;73.41;97594.78;5071767;28;20040;-75
2020/12/04 07:07:12;;;;;;;3.17;3.08;;;8.00;99.90;;;7.85;73.07;97629.72;5072097;28;20052;-75
2020/12/04 07:09:42;;;;;;;3.58;3.38;;;8.00;99.90;;;7.92;74.07;97641.66;5072002;28;20551;-75
2020/12/04 07:12:15;;;;;;;3.47;3.28;;;8.00;99.90;;;7.91;74.26;97675.03;5072110;28;20149;-75
2020/12/04 07:14:48;;;;;;;3.80;3.42;;;7.90;99.90;;;7.86;74.92;97629.63;5071579;28;20056;-77
2020/12/04 07:17:18;;;;;;;3.55;3.35;;;7.90;99.90;;;7.74;74.81;97601.25;5071614;28;20497;-75
2020/12/04 07:19:46;;;;;;;3.70;3.50;;;7.80;99.90;;;7.83;74.00;97692.94;5071866;28;20067;-73
2020/12/04 07:22:16;;;;;;;3.75;3.55;;;7.80;99.90;;;7.91;73.91;97632.94;5071624;28;20068;-74
2020/12/04 07:24:43;;;;;;;3.38;3.17;;;7.90;99.90;;;7.85;74.26;97751.59;5071796;28;20075;-73
2020/12/04 07:27:15;;;;;;;3.95;3.70;;;7.90;99.90;;;7.83;73.66;97760.47;5071759;28;20119;-73
2020/12/04 07:29:44;;;;;;;4.00;3.65;;;7.80;99.90;;;7.88;74.13;97706.72;5070520;28;20529;-73
2020/12/04 07:32:12;;;;;;;5.43;3.58;;;7.90;99.90;;;7.83;73.78;97705.22;5071726;28;20044;-74
2020/12/04 07:34:40;;;;;;;4.15;3.85;;;7.90;99.90;;;7.71;73.99;97685.56;5071704;28;20044;-75
2020/12/04 07:37:09;;;;;;;3.70;3.50;;;7.90;99.90;;;7.83;74.19;97708.72;5071407;28;20494;-73
2020/12/04 07:39:40;;;;;;;3.80;3.60;;;7.80;99.90;;;7.78;74.05;97713.28;5072153;28;20051;-74
2020/12/04 07:42:10;;;;;;;4.10;3.00;;;7.80;99.90;;;7.84;73.79;97714.84;5075545;28;20318;-74
2020/12/04 07:44:41;;;;;;;3.95;3.75;;;7.90;99.90;;;7.78;74.16;97688.78;5075432;28;20305;-74
2020/12/04 07:47:12;;;;;;;3.80;3.60;;;7.80;99.90;;;7.65;72.91;97746.31;5075490;28;20036;-74
2020/12/04 07:49:45;;;;;;;3.22;3.13;;;7.90;99.90;;;7.83;73.38;97800.78;5074988;28;20044;-74
2020/12/04 07:52:20;;;;;;;3.60;3.40;;;7.90;99.90;;;8.07;72.90;97722.56;5075323;28;20180;-73
2020/12/04 07:54:50;;;;;;;4.05;3.63;;;8.00;99.90;;;8.17;72.69;97729.94;5074983;28;20091;-71
2020/12/04 07:57:24;;;;;;;3.60;3.40;;;8.10;99.90;;;8.23;72.57;97734.06;5074886;28;20548;-71
2020/12/04 07:59:55;;;;;;;4.60;3.60;;;8.20;99.90;;;7.97;72.76;97769.47;5074874;28;20049;-72
2020/12/04 08:02:26;;;;;;;3.75;3.55;;;8.10;99.90;;;8.14;73.18;97748.53;5075152;28;20048;-74
2020/12/04 08:04:54;;;;;;;3.80;3.60;;;8.20;99.90;;;8.02;73.36;97753.47;5075067;28;20040;-72
2020/12/04 08:07:22;;;;;;;4.35;3.90;;;8.20;99.90;;;8.10;73.20;97820.63;5074748;28;20052;-72
2020/12/04 08:09:49;;;;;;;3.95;3.75;;;8.20;99.90;;;8.10;73.76;97775.03;5074430;28;20832;-73
2020/12/04 08:12:19;;;;;;;3.95;3.65;;;8.10;99.90;;;8.05;73.31;97783.13;5074452;28;20075;-75
2020/12/04 08:14:53;;;;;;;4.18;3.95;;;8.10;99.90;;;7.95;74.35;97757.28;5074505;28;20059;-79
2020/12/04 08:17:23;;;;;;;4.43;4.07;;;8.10;99.90;;;7.99;74.60;97799.19;5073384;28;20052;-78
2020/12/04 08:19:54;;;;;;;4.50;3.72;;;8.00;99.90;;;7.90;74.29;97825.91;5074757;28;20135;-77
2020/12/04 08:22:30;;;;;;;3.65;3.45;;;8.00;99.90;;;7.97;74.72;97821.25;5074797;28;20057;-82
2020/12/04 08:25:04;;;;;;;3.67;3.47;;;8.00;99.90;;;7.87;75.56;97820.78;5074314;28;20045;-74
2020/12/04 08:27:33;;;;;;;4.10;3.80;;;7.90;99.90;;;7.84;75.10;97857.72;5074465;28;20098;-75
2020/12/04 08:30:12;;;;;;;4.37;4.03;;;7.80;99.90;;;7.81;75.43;97830.69;5074373;28;20070;-73
2020/12/04 08:32:40;;;;;;;4.25;3.85;;;8.00;99.90;;;7.95;75.69;97855.50;5074308;28;20041;-72
2020/12/04 08:35:12;;;;;;;4.45;4.25;;;8.00;99.90;;;7.92;75.97;97836.34;5074196;28;20456;-72
2020/12/04 08:37:40;;;;;;;3.95;3.65;;;8.00;99.90;;;7.88;76.03;97856.69;5074418;28;20041;-72
2020/12/04 08:40:25;;;;;;;4.22;3.92;;;8.00;99.90;;;7.80;76.18;97879.81;5074230;28;20074;-72
2020/12/04 08:42:54;;;;;;;4.30;3.90;;;7.90;99.90;;;7.93;75.86;97891.56;5074425;28;20061;-72
2020/12/04 08:45:29;;;;;;;4.25;3.75;;;7.90;99.90;;;7.99;76.11;97864.13;5074312;28;20063;-72
2020/12/04 08:48:08;;;;;;;4.25;3.95;;;8.00;99.90;;;8.02;75.26;97854.31;5074298;28;20044;-74
2020/12/04 08:50:47;;;;;;;4.45;4.05;;;8.10;99.90;;;7.87;75.59;97851.47;5073532;28;20106;-71
2020/12/04 08:53:17;;;;;;;4.22;4.03;;;8.10;99.90;;;8.00;75.08;97864.06;5073794;28;20052;-73
2020/12/04 08:55:46;;;;;;;4.55;4.13;;;8.10;99.90;;;8.12;74.88;97879.34;5074171;28;20060;-74
2020/12/04 08:58:14;;;;;;;4.15;3.78;;;8.10;99.90;;;8.08;75.30;97926.88;5074060;28;20097;-72
2020/12/04 09:00:42;;;;;;;3.90;3.60;;;8.10;99.90;;;7.99;75.68;97843.91;5072655;28;20070;-73
2020/12/04 09:03:11;;;;;;;6.20;3.53;;;8.00;99.90;;;8.07;75.81;97896.25;5073531;28;20048;-73
2020/12/04 09:05:38;;;;;;;4.70;4.40;;;8.10;99.90;;;7.43;75.92;97802.50;5073546;28;20044;-74
2020/12/04 09:08:07;;;;;;;4.93;3.95;;;8.00;99.90;;;8.12;75.84;97921.44;5073513;28;20606;-73
2020/12/04 09:10:35;;;;;;;4.90;4.53;;;8.10;99.90;;;8.16;75.32;97941.44;5073442;28;20123;-74
2020/12/04 09:13:04;;;;;;;4.35;4.05;;;8.20;99.90;;;8.46;74.62;97910.34;5073722;28;20390;-74
2020/12/04 09:15:32;;;;;;;4.38;4.07;;;8.40;99.90;;;8.27;75.07;97884.88;5073629;28;20052;-74
2020/12/04 09:18:00;;;;;;;4.28;3.97;;;8.30;99.90;;;8.17;74.93;97916.81;5073635;28;20052;-78
2020/12/04 09:20:29;;;;;;;4.43;4.13;;;8.20;99.90;;;8.23;75.01;97884.97;5073356;28;20512;-80
2020/12/04 09:22:57;;;;;;;3.95;3.67;;;8.20;99.90;;;8.30;74.54;97921.63;5073237;28;20569;-80
2020/12/04 09:25:26;;;;;;;5.00;3.92;;;8.30;99.90;;;8.28;75.32;97916.41;5073493;28;20048;-79
2020/12/04 09:27:54;;;;;;;4.82;4.03;;;8.30;99.90;;;8.29;75.38;97938.31;5071792;28;20083;-79
2020/12/04 09:30:22;;;;;;;4.30;3.90;;;8.30;99.90;;;8.23;74.99;97914.88;5073298;28;20051;-79
2020/12/04 09:32:51;;;;;;;4.53;4.13;;;8.30;99.90;;;8.16;74.70;97917.75;5073021;28;20036;-80
2020/12/04 09:35:19;;;;;;;4.95;4.55;;;8.20;99.90;;;8.11;74.54;97960.97;5073235;28;20040;-80
2020/12/04 09:37:48;;;;;;;5.03;4.50;;;8.20;99.90;;;8.00;74.71;97943.00;5071923;28;20064;-79
2020/12/04 09:40:18;;;;;;;5.20;4.43;;;8.10;99.90;;;8.05;74.73;97919.97;5088894;28;20062;-81
2020/12/04 09:42:47;;;;;;;4.53;4.13;;;8.10;99.90;;;8.19;75.25;97961.50;5073162;28;20036;-81
2020/12/04 09:45:18;;;;;;;4.40;4.10;;;8.20;99.90;;;7.99;74.91;97927.28;5073155;28;20052;-77
2020/12/04 09:47:45;;;;;;;4.55;4.18;;;8.10;99.90;;;7.98;74.58;97981.69;5072796;28;20040;-79
2020/12/04 09:50:15;;;;;;;4.35;4.05;;;8.10;99.90;;;8.04;74.54;97984.06;5088434;28;20398;-78
2020/12/04 09:52:43;;;;;;;5.07;4.07;;;8.10;99.90;;;7.98;74.90;98018.50;5072849;28;20115;-79
2020/12/04 09:55:11;;;;;;;4.20;3.90;;;8.10;99.90;;;8.08;74.43;97976.91;5070995;28;20063;-81
2020/12/04 09:57:43;;;;;;;4.45;4.05;;;8.10;99.90;;;8.07;74.27;97977.84;5072621;28;20048;-83
2020/12/04 10:00:12;;;;;;;4.75;4.45;;;8.10;99.90;;;7.97;74.19;97982.63;5072574;28;20048;-79
2020/12/04 10:02:42;;;;;;;4.75;4.40;;;8.00;99.90;;;8.03;74.33;98002.56;5072103;28;20090;-79
2020/12/04 10:05:09;;;;;;;5.10;4.15;;;8.10;99.90;;;8.19;73.59;97975.53;5072804;28;20478;-80
2020/12/04 10:07:37;;;;;;;4.60;4.30;;;8.20;99.90;;;8.21;73.17;97983.34;5072458;28;20079;-80
2020/12/04 10:10:05;;;;;;;5.53;3.97;;;8.20;99.90;;;8.20;72.84;98006.22;5072272;28;20047;-79
2020/12/04 10:12:32;;;;;;;4.65;4.25;;;8.20;99.90;;;8.31;73.22;97983.88;5072755;28;20083;-79
2020/12/04 10:15:00;;;;;;;4.65;4.20;;;8.20;99.90;;;8.32;72.33;98004.03;5072031;28;20110;-80
2020/12/04 10:17:29;;;;;;;4.22;3.83;;;8.30;99.90;;;8.25;72.11;98028.88;5072211;28;20509;-78
2020/12/04 10:19:56;;;;;;;3.83;3.53;;;8.30;99.90;;;8.26;72.95;98006.91;5072431;28;20140;-79
2020/12/04 10:22:27;;;;;;;4.10;3.73;;;8.30;99.90;;;8.37;72.86;98023.97;5072284;28;20041;-79
2020/12/04 10:24:54;;;;;;;4.78;4.35;;;8.30;99.90;;;8.27;72.56;98087.59;5072119;28;20102;-78
2020/12/04 10:27:22;;;;;;;4.90;4.10;;;8.30;99.90;;;8.19;72.94;98004.50;5072191;28;20067;-82
2020/12/04 10:29:50;;;;;;;3.55;3.30;;;8.30;99.90;;;8.23;72.26;98066.63;5072507;28;20117;-78
2020/12/04 10:32:19;;;;;;;5.03;4.63;;;8.20;99.90;;;8.27;73.63;98014.72;5072328;28;20063;-81
2020/12/04 10:34:47;;;;;;;4.55;4.07;;;8.30;99.90;;;8.27;73.35;98019.13;5070969;28;20591;-80
2020/12/04 10:37:14;;;;;;;4.25;3.95;;;8.20;99.90;;;8.34;72.88;98031.16;5072014;28;20056;-79
2020/12/04 10:39:42;;;;;;;5.25;4.38;;;8.30;99.90;;;8.17;72.59;98024.75;5072003;28;20123;-79
2020/12/04 10:42:09;;;;;;;4.15;3.80;;;8.30;99.90;;;8.32;72.96;98033.84;5071858;28;20544;-80